sensor_id;sensor_type;location;lat;lon;timestamp;pressure;altitude;pressure_sealevel;temperature;humidity
2036;BME280;23642;42.658;23.350;2022-10-30T00:00:23;53950.56;;;-146.31;96.92
2036;BME280;23642;42.658;23.350;2022-10-30T00:02:50;53934.06;;;-146.31;97.18
2036;BME280;23642;42.658;23.350;2022-10-30T00:05:17;53929.91;;;-146.31;97.19
2036;BME280;23642;42.658;23.350;2022-10-30T00:07:45;53948.50;;;-146.31;97.39
2036;BME280;23642;42.658;23.350;2022-10-30T00:10:12;53973.28;;;-146.31;97.99
2036;BME280;23642;42.658;23.350;2022-10-30T00:12:41;53878.31;;;-146.31;98.17
2036;BME280;23642;42.658;23.350;2022-10-30T00:15:09;53867.97;;;-146.31;98.57
2036;BME280;23642;42.658;23.350;2022-10-30T00:17:36;53845.28;;;-146.31;98.64
2036;BME280;23642;42.658;23.350;2022-10-30T00:20:04;53828.75;;;-146.31;98.88
2036;BME280;23642;42.658;23.350;2022-10-30T00:22:31;53787.47;;;-146.31;99.15
2036;BME280;23642;42.658;23.350;2022-10-30T00:24:58;53758.56;;;-146.31;99.40
2036;BME280;23642;42.658;23.350;2022-10-30T00:27:25;53721.41;;;-146.31;99.40
2036;BME280;23642;42.658;23.350;2022-10-30T00:29:53;53696.63;;;-146.31;99.40
2036;BME280;23642;42.658;23.350;2022-10-30T00:32:20;53680.13;;;-146.31;99.53
2036;BME280;23642;42.658;23.350;2022-10-30T00:34:47;53626.44;;;-146.31;99.79
2036;BME280;23642;42.658;23.350;2022-10-30T00:37:13;53603.75;;;-146.31;99.36
2036;BME280;23642;42.658;23.350;2022-10-30T00:39:40;53634.72;;;-146.31;99.16
2036;BME280;23642;42.658;23.350;2022-10-30T00:42:10;53601.69;;;-146.31;99.33
2036;BME280;23642;42.658;23.350;2022-10-30T00:44:41;53564.53;;;-146.31;99.41
2036;BME280;23642;42.658;23.350;2022-10-30T00:47:15;53562.47;;;-146.31;99.49
2036;BME280;23642;42.658;23.350;2022-10-30T00:49:49;53550.06;;;-146.31;99.59
2036;BME280;23642;42.658;23.350;2022-10-30T00:52:17;53529.44;;;-146.31;99.51
2036;BME280;23642;42.658;23.350;2022-10-30T00:54:46;53560.41;;;-146.31;98.86
2036;BME280;23642;42.658;23.350;2022-10-30T00:57:13;53568.66;;;-146.31;98.78
2036;BME280;23642;42.658;23.350;2022-10-30T01:02:26;53486.06;;;-146.31;99.55
2036;BME280;23642;42.658;23.350;2022-10-30T01:04:53;53397.31;;;-146.31;99.08
2036;BME280;23642;42.658;23.350;2022-10-30T01:07:20;53475.75;;;-146.31;98.39
2036;BME280;23642;42.658;23.350;2022-10-30T01:09:47;53490.22;;;-146.31;98.20
2036;BME280;23642;42.658;23.350;2022-10-30T01:12:15;53490.22;;;-146.31;97.70
2036;BME280;23642;42.658;23.350;2022-10-30T01:14:45;53506.72;;;-146.31;97.76
2036;BME280;23642;42.658;23.350;2022-10-30T01:17:44;53560.41;;;-146.31;98.08
2036;BME280;23642;42.658;23.350;2022-10-30T01:20:26;53508.78;;;-146.31;98.71
2036;BME280;23642;42.658;23.350;2022-10-30T01:23:08;53512.91;;;-146.31;98.86
2036;BME280;23642;42.658;23.350;2022-10-30T01:25:48;53537.69;;;-146.31;99.21
2036;BME280;23642;42.658;23.350;2022-10-30T01:28:37;53459.25;;;-146.31;99.24
2036;BME280;23642;42.658;23.350;2022-10-30T01:31:18;53473.69;;;-146.31;99.56
2036;BME280;23642;42.658;23.350;2022-10-30T01:34:00;53448.91;;;-146.31;99.63
2036;BME280;23642;42.658;23.350;2022-10-30T01:36:35;53399.38;;;-146.31;99.45
2036;BME280;23642;42.658;23.350;2022-10-30T01:39:07;53438.59;;;-146.31;99.06
2036;BME280;23642;42.658;23.350;2022-10-30T01:41:36;53461.31;;;-146.31;99.24
2036;BME280;23642;42.658;23.350;2022-10-30T01:44:08;53397.31;;;-146.31;99.86
2036;BME280;23642;42.658;23.350;2022-10-30T01:46:42;53333.31;;;-146.31;100.00
2036;BME280;23642;42.658;23.350;2022-10-30T01:52:16;53300.31;;;-146.31;100.00
2036;BME280;23642;42.658;23.350;2022-10-30T01:54:49;53279.66;;;-146.31;100.00
2036;BME280;23642;42.658;23.350;2022-10-30T01:57:24;53287.91;;;-146.31;100.00
2036;BME280;23642;42.658;23.350;2022-10-30T01:59:58;53269.34;;;-146.31;100.00
2036;BME280;23642;42.658;23.350;2022-10-30T02:02:26;53232.19;;;-146.31;100.00
2036;BME280;23642;42.658;23.350;2022-10-30T02:04:53;53188.84;;;-146.31;100.00
2036;BME280;23642;42.658;23.350;2022-10-30T02:07:21;53139.31;;;-146.31;100.00
2036;BME280;23642;42.658;23.350;2022-10-30T02:09:49;53106.28;;;-146.31;100.00
2036;BME280;23642;42.658;23.350;2022-10-30T02:12:17;53058.81;;;-146.31;100.00
2036;BME280;23642;42.658;23.350;2022-10-30T02:14:47;53052.63;;;-146.31;100.00
2036;BME280;23642;42.658;23.350;2022-10-30T02:17:17;52986.56;;;-146.31;100.00
2036;BME280;23642;42.658;23.350;2022-10-30T02:19:44;53017.53;;;-146.31;100.00
2036;BME280;23642;42.658;23.350;2022-10-30T02:22:12;53036.09;;;-146.31;100.00
2036;BME280;23642;42.658;23.350;2022-10-30T02:24:39;53015.47;;;-146.31;100.00
2036;BME280;23642;42.658;23.350;2022-10-30T02:27:06;53042.28;;;-146.31;100.00
2036;BME280;23642;42.658;23.350;2022-10-30T02:29:32;53017.53;;;-146.31;100.00
2036;BME280;23642;42.658;23.350;2022-10-30T02:31:59;53007.22;;;-146.31;100.00
2036;BME280;23642;42.658;23.350;2022-10-30T02:34:26;52982.44;;;-146.31;100.00
2036;BME280;23642;42.658;23.350;2022-10-30T02:36:52;52990.69;;;-146.31;100.00
2036;BME280;23642;42.658;23.350;2022-10-30T02:39:21;52932.91;;;-146.31;100.00
2036;BME280;23642;42.658;23.350;2022-10-30T02:41:47;52978.31;;;-146.31;100.00
2036;BME280;23642;42.658;23.350;2022-10-30T02:44:14;52932.91;;;-146.31;100.00
2036;BME280;23642;42.658;23.350;2022-10-30T02:46:41;52920.53;;;-146.31;100.00
2036;BME280;23642;42.658;23.350;2022-10-30T02:49:07;52899.88;;;-146.31;100.00
2036;BME280;23642;42.658;23.350;2022-10-30T02:51:34;52893.69;;;-146.31;100.00
2036;BME280;23642;42.658;23.350;2022-10-30T02:54:01;52846.22;;;-146.31;100.00
2036;BME280;23642;42.658;23.350;2022-10-30T02:56:29;52821.44;;;-146.31;100.00
2036;BME280;23642;42.658;23.350;2022-10-30T02:58:56;52767.78;;;-146.31;100.00
2036;BME280;23642;42.658;23.350;2022-10-30T03:01:22;52751.28;;;-146.31;100.00
2036;BME280;23642;42.658;23.350;2022-10-30T03:03:50;52726.53;;;-146.31;100.00
2036;BME280;23642;42.658;23.350;2022-10-30T03:06:16;52724.47;;;-146.31;100.00
2036;BME280;23642;42.658;23.350;2022-10-30T03:08:43;52683.19;;;-146.31;100.00
2036;BME280;23642;42.658;23.350;2022-10-30T03:11:12;52652.22;;;-146.31;100.00
2036;BME280;23642;42.658;23.350;2022-10-30T03:13:41;52608.88;;;-146.31;100.00
2036;BME280;23642;42.658;23.350;2022-10-30T03:16:10;52582.06;;;-146.31;100.00
2036;BME280;23642;42.658;23.350;2022-10-30T03:18:38;52526.34;;;-146.31;100.00
2036;BME280;23642;42.658;23.350;2022-10-30T03:21:06;52524.28;;;-146.31;100.00
2036;BME280;23642;42.658;23.350;2022-10-30T03:23:33;52499.50;;;-146.31;100.00
2036;BME280;23642;42.658;23.350;2022-10-30T03:26:00;52485.06;;;-146.31;100.00
2036;BME280;23642;42.658;23.350;2022-10-30T03:28:28;52445.84;;;-146.31;100.00
2036;BME280;23642;42.658;23.350;2022-10-30T03:31:00;52398.41;;;-146.31;100.00
2036;BME280;23642;42.658;23.350;2022-10-30T03:33:27;52388.06;;;-146.31;100.00
2036;BME280;23642;42.658;23.350;2022-10-30T03:35:54;52381.88;;;-146.31;100.00
2036;BME280;23642;42.658;23.350;2022-10-30T03:38:21;52346.81;;;-146.31;100.00
2036;BME280;23642;42.658;23.350;2022-10-30T03:40:48;52330.28;;;-146.31;100.00
2036;BME280;23642;42.658;23.350;2022-10-30T03:43:14;52303.47;;;-146.31;100.00
2036;BME280;23642;42.658;23.350;2022-10-30T03:45:45;52278.72;;;-146.31;100.00
2036;BME280;23642;42.658;23.350;2022-10-30T03:48:15;52268.38;;;-146.31;100.00
2036;BME280;23642;42.658;23.350;2022-10-30T03:50:42;52223.00;;;-146.31;100.00
2036;BME280;23642;42.658;23.350;2022-10-30T03:53:09;52161.09;;;-146.31;100.00
2036;BME280;23642;42.658;23.350;2022-10-30T03:55:36;52146.66;;;-146.31;100.00
2036;BME280;23642;42.658;23.350;2022-10-30T03:58:03;52146.66;;;-146.31;100.00
2036;BME280;23642;42.658;23.350;2022-10-30T04:00:30;52156.97;;;-146.31;100.00
2036;BME280;23642;42.658;23.350;2022-10-30T04:02:57;52202.34;;;-146.31;100.00
2036;BME280;23642;42.658;23.350;2022-10-30T04:05:27;52214.75;;;-146.31;100.00
2036;BME280;23642;42.658;23.350;2022-10-30T04:07:55;52225.06;;;-146.31;100.00
2036;BME280;23642;42.658;23.350;2022-10-30T04:10:22;52206.47;;;-146.31;100.00
2036;BME280;23642;42.658;23.350;2022-10-30T04:12:49;52200.28;;;-146.31;100.00
2036;BME280;23642;42.658;23.350;2022-10-30T04:15:15;52194.09;;;-146.31;100.00
2036;BME280;23642;42.658;23.350;2022-10-30T04:17:47;52206.47;;;-146.31;100.00
2036;BME280;23642;42.658;23.350;2022-10-30T04:20:19;52163.16;;;-146.31;100.00
2036;BME280;23642;42.658;23.350;2022-10-30T04:22:48;52144.59;;;-146.31;100.00
2036;BME280;23642;42.658;23.350;2022-10-30T04:25:15;52103.31;;;-146.31;100.00
2036;BME280;23642;42.658;23.350;2022-10-30T04:27:43;52070.31;;;-146.31;100.00
2036;BME280;23642;42.658;23.350;2022-10-30T04:30:11;52082.69;;;-146.31;100.00
2036;BME280;23642;42.658;23.350;2022-10-30T04:32:45;52181.72;;;-146.31;100.00
2036;BME280;23642;42.658;23.350;2022-10-30T04:35:12;52181.72;;;-146.31;100.00
2036;BME280;23642;42.658;23.350;2022-10-30T04:37:39;52218.88;;;-146.31;100.00
2036;BME280;23642;42.658;23.350;2022-10-30T04:40:09;52167.28;;;-146.31;100.00
2036;BME280;23642;42.658;23.350;2022-10-30T04:42:35;52200.28;;;-146.31;100.00
2036;BME280;23642;42.658;23.350;2022-10-30T04:45:03;52198.22;;;-146.31;100.00
2036;BME280;23642;42.658;23.350;2022-10-30T04:47:30;52171.41;;;-146.31;100.00
2036;BME280;23642;42.658;23.350;2022-10-30T04:49:56;52126.00;;;-146.31;100.00
2036;BME280;23642;42.658;23.350;2022-10-30T04:52:23;52134.25;;;-146.31;100.00
2036;BME280;23642;42.658;23.350;2022-10-30T04:54:50;52055.84;;;-146.31;100.00
2036;BME280;23642;42.658;23.350;2022-10-30T04:57:18;52062.03;;;-146.31;100.00
2036;BME280;23642;42.658;23.350;2022-10-30T04:59:44;52045.53;;;-146.31;100.00
2036;BME280;23642;42.658;23.350;2022-10-30T05:02:11;52024.91;;;-146.31;100.00
2036;BME280;23642;42.658;23.350;2022-10-30T05:04:38;52026.97;;;-146.31;100.00
2036;BME280;23642;42.658;23.350;2022-10-30T05:07:05;52078.56;;;-146.31;100.00
2036;BME280;23642;42.658;23.350;2022-10-30T05:09:32;52072.38;;;-146.31;100.00
2036;BME280;23642;42.658;23.350;2022-10-30T05:11:59;52074.44;;;-146.31;100.00
2036;BME280;23642;42.658;23.350;2022-10-30T05:14:28;52072.38;;;-146.31;100.00
2036;BME280;23642;42.658;23.350;2022-10-30T05:16:55;52049.66;;;-146.31;100.00
2036;BME280;23642;42.658;23.350;2022-10-30T05:19:22;52000.16;;;-146.31;100.00
2036;BME280;23642;42.658;23.350;2022-10-30T05:21:49;52020.78;;;-146.31;100.00
2036;BME280;23642;42.658;23.350;2022-10-30T05:24:16;52022.84;;;-146.31;100.00
2036;BME280;23642;42.658;23.350;2022-10-30T05:26:43;52076.50;;;-146.31;100.00
2036;BME280;23642;42.658;23.350;2022-10-30T05:29:09;52029.03;;;-146.31;100.00
2036;BME280;23642;42.658;23.350;2022-10-30T05:31:37;52002.22;;;-146.31;100.00
2036;BME280;23642;42.658;23.350;2022-10-30T05:34:04;51958.88;;;-146.31;100.00
2036;BME280;23642;42.658;23.350;2022-10-30T05:36:31;51950.63;;;-146.31;100.00
2036;BME280;23642;42.658;23.350;2022-10-30T05:38:58;51942.38;;;-146.31;100.00
2036;BME280;23642;42.658;23.350;2022-10-30T05:41:24;51940.31;;;-146.31;100.00
2036;BME280;23642;42.658;23.350;2022-10-30T05:43:51;51934.13;;;-146.31;100.00
2036;BME280;23642;42.658;23.350;2022-10-30T05:46:18;51878.41;;;-146.31;100.00
2036;BME280;23642;42.658;23.350;2022-10-30T05:48:46;51913.47;;;-146.31;100.00
2036;BME280;23642;42.658;23.350;2022-10-30T05:51:13;51890.78;;;-146.31;100.00
2036;BME280;23642;42.658;23.350;2022-10-30T05:53:39;51901.09;;;-146.31;100.00
2036;BME280;23642;42.658;23.350;2022-10-30T05:56:06;51890.78;;;-146.31;100.00
2036;BME280;23642;42.658;23.350;2022-10-30T05:58:33;51855.72;;;-146.31;100.00
2036;BME280;23642;42.658;23.350;2022-10-30T06:01:04;51857.78;;;-146.31;100.00
2036;BME280;23642;42.658;23.350;2022-10-30T06:03:31;51863.97;;;-146.31;100.00
2036;BME280;23642;42.658;23.350;2022-10-30T06:05:59;51839.22;;;-146.31;100.00
2036;BME280;23642;42.658;23.350;2022-10-30T06:08:27;51880.47;;;-146.31;100.00
2036;BME280;23642;42.658;23.350;2022-10-30T06:10:54;51837.16;;;-146.31;100.00
2036;BME280;23642;42.658;23.350;2022-10-30T06:13:21;51876.34;;;-146.31;100.00
2036;BME280;23642;42.658;23.350;2022-10-30T06:15:47;51973.31;;;-146.31;98.64
2036;BME280;23642;42.658;23.350;2022-10-30T06:18:14;52062.03;;;-146.31;97.93
2036;BME280;23642;42.658;23.350;2022-10-30T06:20:41;52066.16;;;-146.31;96.94
2036;BME280;23642;42.658;23.350;2022-10-30T06:23:09;52169.34;;;-146.31;96.59
2036;BME280;23642;42.658;23.350;2022-10-30T06:25:36;52202.34;;;-146.31;95.79
2036;BME280;23642;42.658;23.350;2022-10-30T06:28:06;52200.28;;;-146.31;96.33
2036;BME280;23642;42.658;23.350;2022-10-30T06:30:33;52235.38;;;-146.31;94.40
2036;BME280;23642;42.658;23.350;2022-10-30T06:33:01;52346.81;;;-146.31;92.42
2036;BME280;23642;42.658;23.350;2022-10-30T06:35:28;52398.41;;;-146.31;92.78
2036;BME280;23642;42.658;23.350;2022-10-30T06:37:56;52408.72;;;-146.31;91.89
2036;BME280;23642;42.658;23.350;2022-10-30T06:40:26;52540.78;;;-146.31;88.42
2036;BME280;23642;42.658;23.350;2022-10-30T06:42:54;52633.66;;;-146.31;88.03
2036;BME280;23642;42.658;23.350;2022-10-30T06:45:22;52693.50;;;-146.31;86.81
2036;BME280;23642;42.658;23.350;2022-10-30T06:47:49;52718.25;;;-146.31;86.14
2036;BME280;23642;42.658;23.350;2022-10-30T06:50:17;52796.69;;;-146.31;84.90
2036;BME280;23642;42.658;23.350;2022-10-30T06:52:44;52835.91;;;-146.31;85.08
2036;BME280;23642;42.658;23.350;2022-10-30T06:55:14;52887.50;;;-146.31;84.96
2036;BME280;23642;42.658;23.350;2022-10-30T06:57:43;52901.94;;;-146.31;83.88
2036;BME280;23642;42.658;23.350;2022-10-30T07:00:11;52916.41;;;-146.31;83.87
2036;BME280;23642;42.658;23.350;2022-10-30T07:02:38;52941.16;;;-146.31;83.52
2036;BME280;23642;42.658;23.350;2022-10-30T07:05:05;52930.84;;;-146.31;83.91
2036;BME280;23642;42.658;23.350;2022-10-30T07:07:32;52934.97;;;-146.31;83.16
2036;BME280;23642;42.658;23.350;2022-10-30T07:09:58;52889.56;;;-146.31;83.50
2036;BME280;23642;42.658;23.350;2022-10-30T07:12:25;52949.41;;;-146.31;81.92
2036;BME280;23642;42.658;23.350;2022-10-30T07:14:53;52953.53;;;-146.31;81.94
2036;BME280;23642;42.658;23.350;2022-10-30T07:17:20;52891.63;;;-146.31;83.78
2036;BME280;23642;42.658;23.350;2022-10-30T07:19:47;52873.06;;;-146.31;83.97
2036;BME280;23642;42.658;23.350;2022-10-30T07:22:14;52868.94;;;-146.31;83.74
2036;BME280;23642;42.658;23.350;2022-10-30T07:24:40;52879.25;;;-146.31;83.50
2036;BME280;23642;42.658;23.350;2022-10-30T07:27:07;52885.44;;;-146.31;84.45
2036;BME280;23642;42.658;23.350;2022-10-30T07:29:34;52837.97;;;-146.31;85.16
2036;BME280;23642;42.658;23.350;2022-10-30T07:32:02;52829.72;;;-146.31;84.68
2036;BME280;23642;42.658;23.350;2022-10-30T07:34:29;52858.59;;;-146.31;84.27
2036;BME280;23642;42.658;23.350;2022-10-30T07:36:56;52848.28;;;-146.31;84.34
2036;BME280;23642;42.658;23.350;2022-10-30T07:39:23;52862.72;;;-146.31;84.47
2036;BME280;23642;42.658;23.350;2022-10-30T07:41:49;52811.13;;;-146.31;82.86
2036;BME280;23642;42.658;23.350;2022-10-30T07:44:16;52883.38;;;-146.31;82.42
2036;BME280;23642;42.658;23.350;2022-10-30T07:46:43;52786.38;;;-146.31;82.48
2036;BME280;23642;42.658;23.350;2022-10-30T07:49:11;52813.19;;;-146.31;81.27
2036;BME280;23642;42.658;23.350;2022-10-30T07:51:38;52850.34;;;-146.31;80.77
2036;BME280;23642;42.658;23.350;2022-10-30T07:54:05;52850.34;;;-146.31;81.40
2036;BME280;23642;42.658;23.350;2022-10-30T07:56:31;52858.59;;;-146.31;81.52
2036;BME280;23642;42.658;23.350;2022-10-30T07:58:58;52879.25;;;-146.31;80.95
2036;BME280;23642;42.658;23.350;2022-10-30T08:01:25;52854.47;;;-146.31;81.64
2036;BME280;23642;42.658;23.350;2022-10-30T08:03:52;52850.34;;;-146.31;82.01
2036;BME280;23642;42.658;23.350;2022-10-30T08:06:20;52864.78;;;-146.31;82.30
2036;BME280;23642;42.658;23.350;2022-10-30T08:08:47;52860.66;;;-146.31;82.12
2036;BME280;23642;42.658;23.350;2022-10-30T08:11:13;52800.81;;;-146.31;80.75
2036;BME280;23642;42.658;23.350;2022-10-30T08:13:40;52802.88;;;-146.31;79.84
2036;BME280;23642;42.658;23.350;2022-10-30T08:16:07;52809.06;;;-146.31;78.61
2036;BME280;23642;42.658;23.350;2022-10-30T08:18:34;52879.25;;;-146.31;77.33
2036;BME280;23642;42.658;23.350;2022-10-30T08:21:00;52879.25;;;-146.31;77.32
2036;BME280;23642;42.658;23.350;2022-10-30T08:23:28;52883.38;;;-146.31;77.80
2036;BME280;23642;42.658;23.350;2022-10-30T08:25:56;52893.69;;;-146.31;77.44
2036;BME280;23642;42.658;23.350;2022-10-30T08:28:25;52883.38;;;-146.31;77.19
2036;BME280;23642;42.658;23.350;2022-10-30T08:30:52;52906.06;;;-146.31;76.68
2036;BME280;23642;42.658;23.350;2022-10-30T08:33:19;52912.25;;;-146.31;77.35
2036;BME280;23642;42.658;23.350;2022-10-30T08:35:47;52899.88;;;-146.31;77.07
2036;BME280;23642;42.658;23.350;2022-10-30T08:38:15;52912.25;;;-146.31;76.87
2036;BME280;23642;42.658;23.350;2022-10-30T08:40:47;52908.13;;;-146.31;76.23
2036;BME280;23642;42.658;23.350;2022-10-30T08:43:14;52899.88;;;-146.31;77.06
2036;BME280;23642;42.658;23.350;2022-10-30T08:45:40;52922.59;;;-146.31;77.15
2036;BME280;23642;42.658;23.350;2022-10-30T08:48:09;52945.28;;;-146.31;75.20
2036;BME280;23642;42.658;23.350;2022-10-30T08:50:36;52920.53;;;-146.31;74.76
2036;BME280;23642;42.658;23.350;2022-10-30T08:53:05;52943.22;;;-146.31;74.08
2036;BME280;23642;42.658;23.350;2022-10-30T08:55:33;52968.00;;;-146.31;75.02
2036;BME280;23642;42.658;23.350;2022-10-30T08:58:01;52928.78;;;-146.31;74.58
2036;BME280;23642;42.658;23.350;2022-10-30T09:00:28;52949.41;;;-146.31;74.65
2036;BME280;23642;42.658;23.350;2022-10-30T09:02:56;52959.72;;;-146.31;74.89
2036;BME280;23642;42.658;23.350;2022-10-30T09:05:23;52963.88;;;-146.31;74.75
2036;BME280;23642;42.658;23.350;2022-10-30T09:07:54;52970.06;;;-146.31;75.01
2036;BME280;23642;42.658;23.350;2022-10-30T09:10:21;52986.56;;;-146.31;74.72
2036;BME280;23642;42.658;23.350;2022-10-30T09:12:53;52988.63;;;-146.31;74.99
2036;BME280;23642;42.658;23.350;2022-10-30T09:15:21;52982.44;;;-146.31;75.37
2036;BME280;23642;42.658;23.350;2022-10-30T09:17:54;52976.25;;;-146.31;74.83
2036;BME280;23642;42.658;23.350;2022-10-30T09:20:21;52961.81;;;-146.31;74.67
2036;BME280;23642;42.658;23.350;2022-10-30T09:22:48;52932.91;;;-146.31;72.89
2036;BME280;23642;42.658;23.350;2022-10-30T09:25:15;52949.41;;;-146.31;71.29
2036;BME280;23642;42.658;23.350;2022-10-30T09:27:42;52978.31;;;-146.31;72.25
2036;BME280;23642;42.658;23.350;2022-10-30T09:30:09;52990.69;;;-146.31;72.72
2036;BME280;23642;42.658;23.350;2022-10-30T09:32:38;52959.72;;;-146.31;72.73
2036;BME280;23642;42.658;23.350;2022-10-30T09:35:05;52949.41;;;-146.31;71.59
2036;BME280;23642;42.658;23.350;2022-10-30T09:37:35;52982.44;;;-146.31;71.75
2036;BME280;23642;42.658;23.350;2022-10-30T09:40:02;52980.38;;;-146.31;70.79
2036;BME280;23642;42.658;23.350;2022-10-30T09:42:40;53015.47;;;-146.31;71.74
2036;BME280;23642;42.658;23.350;2022-10-30T09:45:34;52961.81;;;-146.31;71.79
2036;BME280;23642;42.658;23.350;2022-10-30T09:48:17;52932.91;;;-146.31;69.78
2036;BME280;23642;42.658;23.350;2022-10-30T09:50:57;52984.50;;;-146.31;69.15
2036;BME280;23642;42.658;23.350;2022-10-30T09:53:34;52974.19;;;-146.31;69.36
2036;BME280;23642;42.658;23.350;2022-10-30T09:56:08;53013.41;;;-146.31;69.48
2036;BME280;23642;42.658;23.350;2022-10-30T09:58:43;52990.69;;;-146.31;68.48
2036;BME280;23642;42.658;23.350;2022-10-30T10:01:21;52990.69;;;-146.31;67.51
2036;BME280;23642;42.658;23.350;2022-10-30T10:04:00;52988.63;;;-146.31;67.17
2036;BME280;23642;42.658;23.350;2022-10-30T10:06:27;52980.38;;;-146.31;66.22
2036;BME280;23642;42.658;23.350;2022-10-30T10:09:03;53038.16;;;-146.31;65.73
2036;BME280;23642;42.658;23.350;2022-10-30T10:11:38;52990.69;;;-146.31;65.57
2036;BME280;23642;42.658;23.350;2022-10-30T10:14:11;53009.28;;;-146.31;65.35
2036;BME280;23642;42.658;23.350;2022-10-30T10:16:40;52994.81;;;-146.31;64.73
2036;BME280;23642;42.658;23.350;2022-10-30T10:19:15;52990.69;;;-146.31;63.50
2036;BME280;23642;42.658;23.350;2022-10-30T10:21:48;53015.47;;;-146.31;62.39
2036;BME280;23642;42.658;23.350;2022-10-30T10:24:18;53058.81;;;-146.31;59.35
2036;BME280;23642;42.658;23.350;2022-10-30T10:26:49;53089.75;;;-146.31;57.66
2036;BME280;23642;42.658;23.350;2022-10-30T10:29:31;53147.56;;;-146.31;57.02
2036;BME280;23642;42.658;23.350;2022-10-30T10:32:16;53122.78;;;-146.31;57.41
2036;BME280;23642;42.658;23.350;2022-10-30T10:34:58;53157.88;;;-146.31;55.56
2036;BME280;23642;42.658;23.350;2022-10-30T10:37:37;53149.63;;;-146.31;55.34
2036;BME280;23642;42.658;23.350;2022-10-30T10:40:23;53176.44;;;-146.31;54.64
2036;BME280;23642;42.658;23.350;2022-10-30T10:43:06;53157.88;;;-146.31;55.61
2036;BME280;23642;42.658;23.350;2022-10-30T10:45:42;53164.06;;;-146.31;55.16
2036;BME280;23642;42.658;23.350;2022-10-30T10:51:16;53176.44;;;-146.31;54.86
2036;BME280;23642;42.658;23.350;2022-10-30T10:53:52;53145.50;;;-146.31;55.24
2036;BME280;23642;42.658;23.350;2022-10-30T10:56:24;53153.75;;;-146.31;54.59
2036;BME280;23642;42.658;23.350;2022-10-30T10:58:56;53162.00;;;-146.31;54.10
2036;BME280;23642;42.658;23.350;2022-10-30T11:01:31;53159.94;;;-146.31;54.20
2036;BME280;23642;42.658;23.350;2022-10-30T11:04:04;53188.84;;;-146.31;53.58
2036;BME280;23642;42.658;23.350;2022-10-30T11:06:38;53188.84;;;-146.31;52.42
2036;BME280;23642;42.658;23.350;2022-10-30T11:09:13;53254.88;;;-146.31;51.37
2036;BME280;23642;42.658;23.350;2022-10-30T11:11:42;53285.84;;;-146.31;50.86
2036;BME280;23642;42.658;23.350;2022-10-30T11:14:13;53296.16;;;-146.31;51.02
2036;BME280;23642;42.658;23.350;2022-10-30T11:16:50;53294.09;;;-146.31;50.61
2036;BME280;23642;42.658;23.350;2022-10-30T11:19:19;53285.84;;;-146.31;49.67
2036;BME280;23642;42.658;23.350;2022-10-30T11:21:51;53246.63;;;-146.31;49.63
2036;BME280;23642;42.658;23.350;2022-10-30T11:24:27;53267.28;;;-146.31;48.76
2036;BME280;23642;42.658;23.350;2022-10-30T11:26:54;53444.78;;;-146.31;47.26
2036;BME280;23642;42.658;23.350;2022-10-30T11:29:23;53636.78;;;-146.31;47.44
2036;BME280;23642;42.658;23.350;2022-10-30T11:32:02;53692.50;;;-146.31;46.89
2036;BME280;23642;42.658;23.350;2022-10-30T11:34:33;53740.00;;;-146.31;46.98
2036;BME280;23642;42.658;23.350;2022-10-30T11:37:02;53742.06;;;-146.31;47.04
2036;BME280;23642;42.658;23.350;2022-10-30T11:39:31;53766.81;;;-146.31;46.44
2036;BME280;23642;42.658;23.350;2022-10-30T11:42:05;53824.63;;;-146.31;46.44
2036;BME280;23642;42.658;23.350;2022-10-30T11:44:35;53830.81;;;-146.31;46.35
2036;BME280;23642;42.658;23.350;2022-10-30T11:47:03;53853.53;;;-146.31;46.36
2036;BME280;23642;42.658;23.350;2022-10-30T11:49:42;53857.66;;;-146.31;45.65
2036;BME280;23642;42.658;23.350;2022-10-30T11:52:12;53841.16;;;-146.31;46.05
2036;BME280;23642;42.658;23.350;2022-10-30T11:54:42;53849.41;;;-146.31;45.26
2036;BME280;23642;42.658;23.350;2022-10-30T11:57:18;53828.75;;;-146.31;45.03
2036;BME280;23642;42.658;23.350;2022-10-30T11:59:47;53898.94;;;-146.31;44.05
2036;BME280;23642;42.658;23.350;2022-10-30T12:02:24;53915.47;;;-146.31;43.93
2036;BME280;23642;42.658;23.350;2022-10-30T12:04:52;53956.75;;;-146.31;43.38
2036;BME280;23642;42.658;23.350;2022-10-30T12:07:25;53960.88;;;-146.31;44.09
2036;BME280;23642;42.658;23.350;2022-10-30T12:09:53;53936.13;;;-146.31;44.01
2036;BME280;23642;42.658;23.350;2022-10-30T12:12:27;53931.97;;;-146.31;44.05
2036;BME280;23642;42.658;23.350;2022-10-30T12:15:07;53981.53;;;-146.31;43.19
2036;BME280;23642;42.658;23.350;2022-10-30T12:17:34;54031.09;;;-146.31;43.42
2036;BME280;23642;42.658;23.350;2022-10-30T12:20:03;54010.44;;;-146.31;42.98
2036;BME280;23642;42.658;23.350;2022-10-30T12:22:33;54010.44;;;-146.31;42.77
2036;BME280;23642;42.658;23.350;2022-10-30T12:25:02;54012.50;;;-146.31;42.94
2036;BME280;23642;42.658;23.350;2022-10-30T12:27:33;53989.78;;;-146.31;42.42
2036;BME280;23642;42.658;23.350;2022-10-30T12:30:07;54006.31;;;-146.31;42.01
2036;BME280;23642;42.658;23.350;2022-10-30T12:32:46;54008.38;;;-146.31;42.28
2036;BME280;23642;42.658;23.350;2022-10-30T12:35:34;54008.38;;;-146.31;42.53
2036;BME280;23642;42.658;23.350;2022-10-30T12:38:05;53979.47;;;-146.31;41.94
2036;BME280;23642;42.658;23.350;2022-10-30T12:40:40;53977.41;;;-146.31;41.84
2036;BME280;23642;42.658;23.350;2022-10-30T12:43:15;53936.13;;;-146.31;41.52
2036;BME280;23642;42.658;23.350;2022-10-30T12:45:46;53944.38;;;-146.31;40.99
2036;BME280;23642;42.658;23.350;2022-10-30T12:48:22;53973.28;;;-146.31;40.89
2036;BME280;23642;42.658;23.350;2022-10-30T12:51:09;53993.91;;;-146.31;40.53
2036;BME280;23642;42.658;23.350;2022-10-30T12:53:43;53979.47;;;-146.31;39.90
2036;BME280;23642;42.658;23.350;2022-10-30T12:56:15;53979.47;;;-146.31;39.65